Time;durP1;ratioP1;P1;durP2;ratioP2;P2;SDS_P1;SDS_P2;PMS_P1;PMS_P2;Temp;Humidity;BMP_temperature;BMP_pressure;BME280_temperature;BME280_humidity;BME280_pressure;Samples;Min_cycle;Max_cycle;Signal;HPM_P1;HPM_P2
2024/03/16 00:01:16;;;;;;;2.60;2.30;;;;;;;13.49;82.20;100065.06;5120586;27;20225;-81
2024/03/16 00:03:43;;;;;;;3.30;2.53;;;;;;;13.37;81.91;100068.97;5121797;27;20206;-81
2024/03/16 00:06:09;;;;;;;2.47;2.10;;;;;;;13.14;83.42;100058.44;5121066;27;20209;-80
2024/03/16 00:08:36;;;;;;;3.23;2.13;;;;;;;13.10;84.53;100027.13;5120669;27;20634;-81
2024/03/16 00:11:02;;;;;;;2.57;1.90;;;;;;;13.09;84.05;100021.94;5120316;27;20223;-81
2024/03/16 00:13:29;;;;;;;4.20;1.93;;;;;;;13.09;84.34;100007.06;5120298;27;20229;-81
2024/03/16 00:15:56;;;;;;;4.47;2.00;;;;;;;12.93;83.82;100011.13;5117575;28;20206;-81
2024/03/16 00:18:22;;;;;;;3.83;1.90;;;;;;;13.12;83.67;100016.56;5099562;28;20354;-81
2024/03/16 00:20:49;;;;;;;2.47;2.27;;;;;;;13.32;83.97;100008.03;5100139;28;20262;-81
2024/03/16 00:23:15;;;;;;;2.80;2.10;;;;;;;13.38;84.23;100004.28;5100357;28;20207;-81
2024/03/16 00:25:42;;;;;;;2.50;2.00;;;;;;;13.26;84.49;100006.44;5101256;28;20582;-81
2024/03/16 00:28:08;;;;;;;2.40;2.17;;;;;;;13.28;85.25;99988.06;5100215;28;20216;-81
2024/03/16 00:30:35;;;;;;;3.07;2.07;;;;;;;13.30;84.74;99986.25;5100549;28;20231;-81
2024/03/16 00:33:01;;;;;;;4.60;2.07;;;;;;;13.28;84.09;99999.38;5100082;28;20233;-81
2024/03/16 00:35:28;;;;;;;2.57;1.70;;;;;;;13.21;83.80;100026.72;5100786;28;20216;-82
2024/03/16 00:37:55;;;;;;;3.30;1.97;;;;;;;13.04;83.55;100016.88;5099374;28;20217;-80
2024/03/16 00:40:21;;;;;;;2.20;2.00;;;;;;;13.18;83.23;100025.97;5100075;28;20614;-81
2024/03/16 00:42:48;;;;;;;2.07;1.70;;;;;;;13.34;83.23;100028.91;5101034;28;20199;-81
2024/03/16 00:45:14;;;;;;;2.77;1.70;;;;;;;13.42;84.07;100014.63;5116371;28;20224;-81
2024/03/16 00:47:41;;;;;;;4.60;1.60;;;;;;;13.47;83.88;100010.03;5117361;28;20287;-81
2024/03/16 00:50:08;;;;;;;2.97;1.70;;;;;;;13.53;83.96;100005.50;5117244;28;20231;-81
2024/03/16 00:52:34;;;;;;;2.13;1.50;;;;;;;13.56;84.26;99992.25;5117048;28;20250;-81
2024/03/16 00:55:01;;;;;;;2.20;1.40;;;;;;;13.49;84.21;99989.88;5117518;28;20207;-81
2024/03/16 00:57:27;;;;;;;1.60;1.40;;;;;;;13.53;83.85;99993.22;5117712;28;20203;-81
2024/03/16 00:59:54;;;;;;;1.60;1.50;;;;;;;13.57;83.90;99991.34;5116559;28;20231;-81
2024/03/16 01:02:21;;;;;;;2.53;2.30;;;;;;;13.54;83.50;99997.56;5117332;28;20240;-81
2024/03/16 01:04:47;;;;;;;2.80;2.50;;;;;;;13.58;82.60;100012.28;5117573;28;20203;-81
2024/03/16 01:07:14;;;;;;;4.00;2.47;;;;;;;13.60;81.01;100041.06;5116349;28;20203;-81
2024/03/16 01:09:41;;;;;;;3.57;3.00;;;;;;;13.58;81.39;100054.25;5116236;28;20321;-81
2024/03/16 01:12:08;;;;;;;8.97;3.00;;;;;;;13.58;81.20;100058.63;5116929;28;20210;-81
2024/03/16 01:14:34;;;;;;;3.23;2.30;;;;;;;13.56;81.87;100056.06;5118705;28;20503;-80
2024/03/16 01:17:00;;;;;;;3.30;2.23;;;;;;;13.12;81.17;100066.34;5116966;28;20263;-82
2024/03/16 01:19:27;;;;;;;4.80;3.07;;;;;;;12.98;82.33;100043.25;5101079;28;20233;-81
2024/03/16 01:21:53;;;;;;;5.70;2.90;;;;;;;12.88;81.76;100042.75;5103670;28;20221;-81
2024/03/16 01:24:20;;;;;;;4.10;2.73;;;;;;;13.03;82.55;100028.25;5107985;28;20206;-81
2024/03/16 01:26:47;;;;;;;3.40;2.70;;;;;;;13.06;82.45;100020.28;5108450;28;20676;-81
2024/03/16 01:29:15;;;;;;;3.80;2.20;;;;;;;13.15;82.47;100026.94;5108709;28;20240;-80
2024/03/16 01:31:42;;;;;;;5.20;2.40;;;;;;;12.90;81.78;100032.19;5108443;28;20208;-81
2024/03/16 01:34:08;;;;;;;3.17;2.30;;;;;;;13.00;82.60;100017.88;5108654;28;20280;-80
2024/03/16 01:36:35;;;;;;;4.73;2.43;;;;;;;12.82;82.49;100023.75;5103423;28;20201;-81
2024/03/16 01:39:01;;;;;;;4.53;2.50;;;;;;;12.76;82.56;100022.19;5101972;28;20533;-81
2024/03/16 01:41:28;;;;;;;3.13;2.73;;;;;;;12.91;83.30;100000.72;5102774;28;20225;-81
2024/03/16 01:43:54;;;;;;;3.00;2.30;;;;;;;12.95;82.41;100008.47;5107583;28;20210;-80
2024/03/16 01:46:21;;;;;;;3.07;2.53;;;;;;;13.02;82.02;100016.06;5118311;28;20664;-81
2024/03/16 01:48:53;;;;;;;5.00;2.60;;;;;;;13.01;81.98;100010.88;5118044;28;20741;-80
2024/03/16 01:51:19;;;;;;;4.47;2.60;;;;;;;12.66;82.60;100026.88;5117615;28;20218;-81
2024/03/16 01:53:45;;;;;;;3.07;2.37;;;;;;;12.92;82.32;100017.28;5117683;28;20226;-80
2024/03/16 01:56:12;;;;;;;3.60;2.37;;;;;;;13.03;81.62;100025.63;5118140;28;20210;-80
2024/03/16 01:58:43;;;;;;;4.67;2.47;;;;;;;13.04;82.29;100022.09;5118722;28;20245;-81
2024/03/16 02:01:09;;;;;;;3.50;2.13;;;;;;;13.09;81.41;100038.50;5120112;28;20250;-81
2024/03/16 02:03:36;;;;;;;3.33;2.30;;;;;;;13.06;81.24;100045.59;5119511;28;20207;-81
2024/03/16 02:06:02;;;;;;;4.90;2.93;;;;;;;13.05;81.15;100038.66;5118727;28;20233;-81
2024/03/16 02:08:28;;;;;;;4.90;2.50;;;;;;;13.09;80.58;100048.97;5120666;28;20231;-80
2024/03/16 02:10:55;;;;;;;4.50;2.67;;;;;;;13.05;80.80;100055.25;5120554;28;20219;-81
2024/03/16 02:13:22;;;;;;;4.13;2.80;;;;;;;13.03;81.20;100064.91;5123825;27;20258;-81
2024/03/16 02:15:48;;;;;;;5.60;2.73;;;;;;;12.94;80.93;100056.53;5106730;27;20569;-81
2024/03/16 02:18:15;;;;;;;13.13;3.07;;;;;;;12.97;80.75;100056.44;5123103;27;20205;-81
2024/03/16 02:20:42;;;;;;;4.87;2.77;;;;;;;12.94;81.37;100041.66;5123661;27;20328;-81
2024/03/16 02:23:08;;;;;;;4.67;3.40;;;;;;;12.84;81.24;100046.38;5122387;27;20195;-81
2024/03/16 02:25:35;;;;;;;4.37;2.87;;;;;;;12.83;81.60;100046.44;5122712;27;20676;-81
2024/03/16 02:28:02;;;;;;;4.60;3.50;;;;;;;12.80;81.77;100041.28;5121766;27;20209;-81
2024/03/16 02:30:28;;;;;;;7.23;3.10;;;;;;;12.85;81.72;100036.75;5122679;27;20908;-82
2024/03/16 02:32:55;;;;;;;5.30;3.57;;;;;;;12.97;80.92;100040.72;5122219;27;20209;-81
2024/03/16 02:35:22;;;;;;;6.47;4.17;;;;;;;12.86;80.97;100055.03;5123438;27;20632;-81
2024/03/16 02:37:49;;;;;;;5.57;3.93;;;;;;;12.87;80.50;100063.75;5122567;27;20784;-81
2024/03/16 02:40:15;;;;;;;6.60;3.47;;;;;;;12.81;81.67;100053.47;5123223;27;20706;-81
2024/03/16 02:42:42;;;;;;;5.37;4.30;;;;;;;12.78;81.72;100051.81;5123738;27;20216;-81
2024/03/16 02:45:09;;;;;;;5.17;3.30;;;;;;;12.91;82.02;100039.16;5119532;28;20737;-81
2024/03/16 02:47:36;;;;;;;6.30;3.40;;;;;;;12.93;81.60;100045.19;5121478;27;20208;-81
2024/03/16 02:50:03;;;;;;;7.77;3.40;;;;;;;13.04;80.77;100057.91;5122374;27;20730;-81
2024/03/16 02:52:30;;;;;;;4.57;3.20;;;;;;;12.85;80.51;100074.28;5122215;27;20201;-81
2024/03/16 02:54:57;;;;;;;7.00;3.63;;;;;;;12.99;80.70;100079.03;5123295;27;20670;-82
2024/03/16 02:57:24;;;;;;;8.20;3.00;;;;;;;12.97;81.14;100080.00;5122687;27;20213;-81
2024/03/16 02:59:50;;;;;;;5.57;3.17;;;;;;;13.07;80.49;100090.09;5129702;27;20213;-81
2024/03/16 03:02:22;;;;;;;6.17;3.27;;;;;;;13.11;81.25;100081.22;5141247;27;20231;-81
2024/03/16 03:04:49;;;;;;;3.33;2.97;;;;;;;13.17;80.85;100080.16;5135571;27;20241;-81
2024/03/16 03:07:15;;;;;;;4.63;2.83;;;;;;;12.90;80.04;100103.81;5123625;27;20228;-81
2024/03/16 03:09:42;;;;;;;7.27;3.00;;;;;;;13.01;80.22;100106.03;5122163;27;20796;-81
2024/03/16 03:12:09;;;;;;;6.67;2.60;;;;;;;12.82;80.27;100110.19;5122682;27;20213;-82
2024/03/16 03:14:36;;;;;;;3.90;2.57;;;;;;;12.97;81.22;100086.09;5119490;27;20226;-81
2024/03/16 03:17:02;;;;;;;4.63;2.40;;;;;;;12.69;81.10;100087.03;5119214;28;20215;-81
2024/03/16 03:19:29;;;;;;;4.80;2.47;;;;;;;12.57;81.67;100087.44;5102296;28;20227;-81
2024/03/16 03:21:55;;;;;;;5.00;2.30;;;;;;;12.66;81.29;100081.88;5101988;28;20676;-80
2024/03/16 03:24:22;;;;;;;4.07;2.43;;;;;;;12.80;81.93;100070.09;5102101;28;20259;-81
2024/03/16 03:26:48;;;;;;;3.93;2.30;;;;;;;12.81;81.61;100074.44;5102342;28;20237;-82
2024/03/16 03:29:15;;;;;;;3.73;2.03;;;;;;;12.71;81.16;100079.13;5101439;28;20560;-81
2024/03/16 03:31:41;;;;;;;5.67;2.53;;;;;;;12.88;80.96;100074.19;5101091;28;20202;-82
2024/03/16 03:34:08;;;;;;;4.80;2.37;;;;;;;12.71;80.64;100079.13;5101886;28;20229;-81
2024/03/16 03:36:34;;;;;;;6.90;2.70;;;;;;;12.56;81.36;100090.97;5102454;28;20218;-80
2024/03/16 03:39:01;;;;;;;4.37;3.10;;;;;;;12.45;82.20;100070.38;5102053;28;20211;-81
2024/03/16 03:41:28;;;;;;;6.30;2.70;;;;;;;12.49;81.98;100064.13;5101423;28;20293;-81
2024/03/16 03:43:59;;;;;;;4.10;2.77;;;;;;;12.37;82.47;100061.91;5109687;27;20280;-82
2024/03/16 03:46:39;;;;;;;8.00;3.13;;;;;;;12.61;82.46;100047.16;5118700;28;20288;-81
2024/03/16 03:49:11;;;;;;;5.73;2.60;;;;;;;12.58;81.90;100055.09;5104307;28;20207;-81
2024/03/16 03:51:38;;;;;;;5.20;2.87;;;;;;;12.57;82.26;100050.78;5102576;28;20301;-81
2024/03/16 03:54:06;;;;;;;3.57;2.80;;;;;;;12.53;81.59;100051.81;5101161;28;20237;-82
2024/03/16 03:56:33;;;;;;;7.37;3.00;;;;;;;12.61;82.40;100052.41;5102398;28;20235;-81
2024/03/16 03:58:59;;;;;;;5.67;2.80;;;;;;;12.60;82.41;100055.06;5101589;28;20312;-81
2024/03/16 04:01:25;;;;;;;4.40;2.93;;;;;;;12.77;82.46;100041.41;5100218;28;20589;-81
2024/03/16 04:03:52;;;;;;;5.90;2.83;;;;;;;12.83;81.86;100055.13;5100820;28;20198;-81
2024/03/16 04:06:18;;;;;;;4.37;2.47;;;;;;;12.71;81.48;100063.41;5100336;28;20223;-81
2024/03/16 04:08:45;;;;;;;3.10;2.80;;;;;;;12.67;81.51;100070.50;5098761;28;20632;-81
2024/03/16 04:11:11;;;;;;;5.03;2.40;;;;;;;12.76;81.13;100061.47;5099657;28;20233;-81
2024/03/16 04:13:38;;;;;;;5.93;2.87;;;;;;;12.83;80.60;100076.09;5106238;27;20233;-81
2024/03/16 04:16:05;;;;;;;2.43;2.23;;;;;;;12.81;80.56;100084.91;5116648;28;20203;-81
2024/03/16 04:18:31;;;;;;;3.13;2.37;;;;;;;12.85;80.69;100079.50;5100189;28;20230;-81
2024/03/16 04:20:57;;;;;;;4.77;2.40;;;;;;;12.67;80.99;100082.75;5099349;28;20234;-81
2024/03/16 04:23:24;;;;;;;3.00;2.53;;;;;;;12.74;81.25;100079.00;5098907;28;20228;-81
2024/03/16 04:25:50;;;;;;;3.00;2.17;;;;;;;12.67;81.48;100088.00;5097632;28;20231;-81
2024/03/16 04:28:17;;;;;;;2.63;2.20;;;;;;;12.75;80.90;100085.97;5098863;28;20680;-81
2024/03/16 04:30:44;;;;;;;4.37;2.50;;;;;;;12.76;81.00;100095.53;5098563;28;20222;-81
2024/03/16 04:33:10;;;;;;;3.97;2.30;;;;;;;12.83;81.19;100086.56;5099554;28;20201;-81
2024/03/16 04:35:37;;;;;;;2.40;2.20;;;;;;;12.84;80.66;100100.50;5099555;28;20280;-81
2024/03/16 04:38:03;;;;;;;4.33;2.20;;;;;;;12.78;80.12;100116.44;5099124;28;20223;-82
2024/03/16 04:40:30;;;;;;;3.70;2.50;;;;;;;12.77;80.26;100125.22;5099409;28;20317;-79
2024/03/16 04:42:57;;;;;;;4.00;2.30;;;;;;;12.75;81.02;100113.94;5113908;28;20210;-81
2024/03/16 04:45:24;;;;;;;2.90;2.47;;;;;;;12.80;80.61;100119.88;5115624;28;20236;-81
2024/03/16 04:47:50;;;;;;;2.40;2.10;;;;;;;12.85;79.87;100131.06;5114370;28;20210;-80
2024/03/16 04:50:16;;;;;;;2.87;2.07;;;;;;;12.20;81.33;100151.41;5099660;28;20774;-80
2024/03/16 04:52:43;;;;;;;4.93;2.53;;;;;;;12.46;81.46;100110.50;5099321;28;20210;-80
2024/03/16 04:55:09;;;;;;;5.43;2.70;;;;;;;12.52;81.41;100098.03;5100318;28;20723;-81
2024/03/16 04:57:36;;;;;;;5.03;2.70;;;;;;;12.62;81.59;100093.38;5103394;28;20290;-81
2024/03/16 05:00:04;;;;;;;6.57;2.97;;;;;;;12.58;81.90;100083.91;5103608;28;20226;-81
2024/03/16 05:02:30;;;;;;;2.77;2.43;;;;;;;12.62;81.29;100075.03;5103370;28;20206;-80
2024/03/16 05:04:57;;;;;;;4.03;2.97;;;;;;;12.67;81.09;100088.00;5102692;28;20209;-81
2024/03/16 05:07:23;;;;;;;2.77;2.43;;;;;;;12.62;81.75;100087.28;5103583;28;20268;-81
2024/03/16 05:09:49;;;;;;;3.47;3.03;;;;;;;12.68;81.85;100073.97;5103779;28;20645;-80
2024/03/16 05:12:18;;;;;;;3.10;2.80;;;;;;;12.50;81.52;100075.44;5112189;28;20252;-80
2024/03/16 05:14:44;;;;;;;4.03;3.43;;;;;;;12.50;82.02;100072.84;5129834;27;20267;-80
2024/03/16 05:17:11;;;;;;;3.50;3.20;;;;;;;12.34;81.59;100076.84;5132768;28;20217;-81
2024/03/16 05:19:38;;;;;;;3.33;3.03;;;;;;;12.41;81.69;100078.38;5114064;28;20235;-81
2024/03/16 05:22:04;;;;;;;4.77;3.27;;;;;;;12.28;82.00;100080.53;5115497;28;20217;-80
2024/03/16 05:24:31;;;;;;;5.63;2.90;;;;;;;12.39;82.14;100067.97;5111121;28;20209;-80
2024/03/16 05:26:57;;;;;;;4.90;3.33;;;;;;;12.47;81.35;100070.34;5102780;28;20203;-81
2024/03/16 05:29:25;;;;;;;3.87;3.37;;;;;;;12.56;80.66;100088.34;5102807;28;20207;-80
2024/03/16 05:31:56;;;;;;;3.13;2.83;;;;;;;12.20;81.25;100120.00;5102418;28;20297;-81
2024/03/16 05:34:22;;;;;;;3.80;3.50;;;;;;;12.40;81.47;100102.84;5102828;28;20277;-80
2024/03/16 05:36:49;;;;;;;3.73;3.33;;;;;;;12.45;81.25;100103.56;5102443;28;20258;-80
2024/03/16 05:39:15;;;;;;;4.00;3.60;;;;;;;12.23;82.30;100101.63;5101934;28;20692;-80
2024/03/16 05:41:42;;;;;;;3.20;2.90;;;;;;;12.07;82.73;100089.88;5101649;28;20203;-81
2024/03/16 05:44:09;;;;;;;3.83;3.53;;;;;;;12.03;82.86;100085.66;5109477;28;20195;-80
2024/03/16 05:46:36;;;;;;;3.73;3.20;;;;;;;12.15;84.15;100051.28;5119084;28;20240;-80
2024/03/16 05:49:02;;;;;;;3.67;3.37;;;;;;;12.28;83.34;100044.72;5120113;28;20205;-81
2024/03/16 05:51:29;;;;;;;4.40;3.30;;;;;;;12.22;83.48;100047.56;5119335;28;20248;-80
2024/03/16 05:53:56;;;;;;;5.47;4.07;;;;;;;12.31;83.28;100047.25;5119072;28;20210;-81
2024/03/16 05:56:22;;;;;;;4.93;3.57;;;;;;;12.15;83.86;100047.78;5119235;28;20210;-80
2024/03/16 05:58:49;;;;;;;3.87;3.23;;;;;;;11.91;85.28;100040.69;5118719;28;20226;-80
2024/03/16 06:01:15;;;;;;;4.77;3.70;;;;;;;12.07;85.10;100021.88;5118540;28;20240;-81
2024/03/16 06:03:42;;;;;;;4.20;3.80;;;;;;;12.16;84.88;100031.19;5120234;28;20206;-81
2024/03/16 06:06:08;;;;;;;6.03;4.03;;;;;;;12.24;85.16;100032.66;5120776;28;20567;-79
2024/03/16 06:08:36;;;;;;;5.40;4.73;;;;;;;12.25;85.82;100017.81;5120764;28;20214;-81
2024/03/16 06:11:03;;;;;;;6.47;5.07;;;;;;;12.27;86.60;99995.94;5118300;28;20228;-81
2024/03/16 06:13:29;;;;;;;5.57;5.03;;;;;;;12.33;85.63;100005.34;5122312;27;20211;-82
2024/03/16 06:15:56;;;;;;;7.07;5.90;;;;;;;12.19;86.82;100000.56;5119883;27;20226;-82
2024/03/16 06:18:22;;;;;;;7.30;6.70;;;;;;;12.31;86.86;99992.31;5122765;27;20200;-82
2024/03/16 06:20:49;;;;;;;7.37;6.67;;;;;;;12.09;87.72;99992.16;5122189;27;20233;-82
2024/03/16 06:23:15;;;;;;;7.33;6.60;;;;;;;11.87;89.81;99970.16;5121910;27;20204;-82
2024/03/16 06:25:48;;;;;;;8.00;7.33;;;;;;;12.02;89.83;99942.69;5121727;27;20201;-82
2024/03/16 06:28:16;;;;;;;11.37;6.73;;;;;;;12.10;89.62;99938.06;5121746;27;20719;-81
2024/03/16 06:30:48;;;;;;;6.80;6.30;;;;;;;12.12;89.68;99938.88;5120764;27;20249;-81
2024/03/16 06:33:26;;;;;;;8.13;7.47;;;;;;;12.04;90.06;99941.72;5123147;27;20210;-82
2024/03/16 06:35:53;;;;;;;8.40;6.67;;;;;;;11.94;91.64;99926.41;5122928;27;20228;-81
2024/03/16 06:38:19;;;;;;;7.87;7.07;;;;;;;12.01;91.98;99910.47;5121826;27;20201;-81
2024/03/16 06:40:46;;;;;;;7.80;7.07;;;;;;;11.98;91.76;99913.16;5123567;27;20600;-82
2024/03/16 06:43:12;;;;;;;10.03;8.23;;;;;;;11.57;94.32;99889.19;5126394;27;20220;-82
2024/03/16 06:45:39;;;;;;;8.90;6.97;;;;;;;11.56;95.83;99847.44;5124100;27;20199;-81
2024/03/16 06:48:06;;;;;;;8.63;7.83;;;;;;;11.63;95.99;99836.69;5122229;27;20206;-82
2024/03/16 06:50:32;;;;;;;8.10;7.30;;;;;;;11.81;95.72;99835.22;5121544;27;20239;-81
2024/03/16 06:52:59;;;;;;;8.50;7.83;;;;;;;11.86;94.92;99848.16;5121526;27;20206;-82
2024/03/16 06:55:26;;;;;;;10.73;8.10;;;;;;;11.77;95.87;99849.31;5121364;27;20226;-82
2024/03/16 06:57:52;;;;;;;9.40;8.70;;;;;;;11.74;96.15;99846.81;5120738;27;20205;-82
2024/03/16 07:00:19;;;;;;;10.57;8.40;;;;;;;11.90;95.83;99852.41;5120162;27;20243;-81
2024/03/16 07:02:45;;;;;;;7.70;7.10;;;;;;;11.94;95.45;99850.56;5121004;27;20695;-81
2024/03/16 07:05:11;;;;;;;9.10;8.30;;;;;;;12.00;95.55;99859.03;5120628;27;20201;-81
2024/03/16 07:07:38;;;;;;;8.73;8.03;;;;;;;12.14;94.42;99873.41;5120479;27;20206;-81
2024/03/16 07:10:06;;;;;;;8.33;7.63;;;;;;;11.96;95.79;99880.13;5119825;27;20231;-81
2024/03/16 07:12:32;;;;;;;9.20;8.40;;;;;;;11.59;97.92;99866.47;5121269;27;20261;-82
2024/03/16 07:14:59;;;;;;;9.30;8.37;;;;;;;11.64;98.06;99848.03;5118999;27;20294;-81
2024/03/16 07:17:26;;;;;;;9.33;8.23;;;;;;;11.85;97.68;99835.97;5116822;28;20203;-81
2024/03/16 07:19:53;;;;;;;8.47;7.43;;;;;;;11.76;99.00;99836.31;5100467;28;20230;-81
2024/03/16 07:22:20;;;;;;;8.67;7.87;;;;;;;11.94;98.06;99846.19;5099623;28;20214;-81
2024/03/16 07:24:46;;;;;;;8.50;7.57;;;;;;;12.08;97.25;99856.16;5099936;28;20199;-81
2024/03/16 07:27:13;;;;;;;7.93;7.23;;;;;;;11.97;98.05;99848.69;5099287;28;20214;-82
2024/03/16 07:29:40;;;;;;;8.07;7.27;;;;;;;12.17;97.13;99858.47;5098197;28;20262;-81
2024/03/16 07:32:07;;;;;;;8.27;7.47;;;;;;;11.89;99.07;99858.53;5097513;28;20201;-81
2024/03/16 07:34:34;;;;;;;8.07;7.13;;;;;;;11.98;99.02;99852.16;5098820;28;20279;-81
2024/03/16 07:37:00;;;;;;;9.43;8.63;;;;;;;12.08;98.82;99858.78;5099225;28;20256;-81
2024/03/16 07:39:27;;;;;;;9.03;8.23;;;;;;;11.67;100.00;99838.34;5099217;28;20209;-82
2024/03/16 07:41:53;;;;;;;9.90;8.67;;;;;;;11.77;100.00;99817.09;5099857;28;20206;-82
2024/03/16 07:44:20;;;;;;;8.50;7.70;;;;;;;11.45;100.00;99806.78;5108127;28;20554;-82
2024/03/16 07:46:48;;;;;;;9.47;8.47;;;;;;;11.30;100.00;99758.50;5116632;28;20252;-82
2024/03/16 07:49:14;;;;;;;9.43;8.53;;;;;;;11.58;100.00;99754.13;5116992;28;20392;-82
2024/03/16 07:51:43;;;;;;;9.37;8.47;;;;;;;11.69;100.00;99757.22;5116607;28;20742;-82
2024/03/16 07:54:12;;;;;;;8.27;7.30;;;;;;;11.71;100.00;99776.31;5117939;28;20552;-82
2024/03/16 07:56:38;;;;;;;8.43;7.47;;;;;;;11.70;100.00;99791.16;5119497;28;20263;-83
2024/03/16 07:59:05;;;;;;;8.80;8.10;;;;;;;11.55;100.00;99796.03;5117936;28;20237;-82
2024/03/16 08:01:32;;;;;;;8.63;7.73;;;;;;;11.52;100.00;99828.38;5115662;28;20228;-84
2024/03/16 08:03:58;;;;;;;2.33;2.13;;;;;;;10.92;100.00;99870.28;5115858;28;20244;-83
2024/03/16 08:06:25;;;;;;;4.07;2.00;;;;;;;10.60;100.00;99909.47;5118951;27;20652;-82
2024/03/16 08:08:51;;;;;;;2.07;1.97;;;;;;;10.38;100.00;99906.59;5121313;27;20222;-82
2024/03/16 08:11:19;;;;;;;2.50;2.30;;;;;;;10.32;100.00;99886.75;5118897;27;20266;-82
2024/03/16 08:13:46;;;;;;;2.33;2.10;;;;;;;10.24;100.00;99892.13;5119246;27;20581;-82
2024/03/16 08:16:12;;;;;;;2.37;2.17;;;;;;;10.40;100.00;99892.59;5118544;27;20233;-81
2024/03/16 08:18:39;;;;;;;2.33;2.13;;;;;;;10.29;100.00;99913.75;5118667;27;20197;-81
2024/03/16 08:21:07;;;;;;;2.30;2.17;;;;;;;10.50;100.00;99911.50;5118198;27;20227;-81
2024/03/16 08:23:33;;;;;;;2.60;2.40;;;;;;;10.52;100.00;99939.28;5117838;27;20248;-82
2024/03/16 08:26:00;;;;;;;2.63;2.43;;;;;;;10.58;100.00;99963.47;5117015;27;20229;-82
2024/03/16 08:28:27;;;;;;;3.63;1.87;;;;;;;10.43;100.00;99970.81;5118201;28;20259;-81
2024/03/16 08:30:53;;;;;;;2.57;2.33;;;;;;;9.94;100.00;99951.16;5119554;27;20219;-81
2024/03/16 08:33:20;;;;;;;2.13;1.93;;;;;;;9.72;100.00;99935.16;5120268;27;20202;-82
2024/03/16 08:35:46;;;;;;;1.90;1.67;;;;;;;9.74;100.00;99952.47;5120621;28;20195;-81
2024/03/16 08:38:12;;;;;;;1.63;1.53;;;;;;;9.77;100.00;99967.16;5119574;28;20203;-81
2024/03/16 08:40:39;;;;;;;1.50;1.40;;;;;;;9.58;100.00;100010.19;5119426;28;20596;-81
2024/03/16 08:43:07;;;;;;;1.73;1.60;;;;;;;9.51;100.00;100023.38;5119589;28;20208;-82
2024/03/16 08:45:35;;;;;;;1.60;1.50;;;;;;;9.26;100.00;100025.59;5116759;28;20274;-82
2024/03/16 08:48:01;;;;;;;1.77;1.67;;;;;;;9.45;100.00;100015.66;5099699;28;20237;-81
2024/03/16 08:50:28;;;;;;;1.73;1.30;;;;;;;9.71;100.00;100028.13;5102405;28;20215;-81
2024/03/16 08:52:54;;;;;;;1.60;1.40;;;;;;;10.05;100.00;100044.75;5116411;28;20211;-81
2024/03/16 08:55:21;;;;;;;2.80;1.70;;;;;;;10.13;100.00;100069.78;5115759;28;20248;-81
2024/03/16 08:57:47;;;;;;;2.63;1.37;;;;;;;10.17;99.38;100107.06;5115737;28;20292;-81
2024/03/16 09:00:14;;;;;;;1.53;1.43;;;;;;;10.08;99.32;100135.97;5115532;28;20220;-80
2024/03/16 09:02:41;;;;;;;1.97;1.50;;;;;;;9.87;100.00;100135.53;5119551;28;20257;-80
2024/03/16 09:05:08;;;;;;;1.70;1.60;;;;;;;9.65;100.00;100129.91;5117932;28;20246;-80
2024/03/16 09:07:37;;;;;;;1.83;1.70;;;;;;;9.58;100.00;100149.16;5118305;28;20195;-80
2024/03/16 09:10:06;;;;;;;1.70;1.60;;;;;;;9.35;100.00;100133.94;5121066;28;20215;-83
2024/03/16 09:12:32;;;;;;;1.83;1.73;;;;;;;9.50;100.00;100118.03;5123537;28;20214;-81
2024/03/16 09:14:59;;;;;;;1.90;1.80;;;;;;;9.49;100.00;100125.88;5119388;28;20661;-82
2024/03/16 09:17:25;;;;;;;2.03;1.83;;;;;;;9.69;100.00;100125.47;5123065;28;20254;-80
2024/03/16 09:19:52;;;;;;;1.97;1.60;;;;;;;9.66;100.00;100151.63;5122756;28;20227;-81
2024/03/16 09:22:18;;;;;;;4.13;1.90;;;;;;;9.44;100.00;100178.06;5122481;28;20211;-80
2024/03/16 09:24:46;;;;;;;1.80;1.50;;;;;;;9.87;99.99;100179.84;5120356;28;20199;-81
2024/03/16 09:27:12;;;;;;;1.63;1.53;;;;;;;10.00;98.76;100203.06;5118784;28;20282;-81
2024/03/16 09:29:43;;;;;;;1.30;1.20;;;;;;;9.92;98.41;100232.75;5118280;28;20245;-81
2024/03/16 09:32:10;;;;;;;1.80;1.20;;;;;;;10.14;96.95;100259.25;5119905;28;20284;-79
2024/03/16 09:34:37;;;;;;;0.83;0.70;;;;;;;9.83;95.03;100311.16;4410292;28;10000654;-82
2024/03/16 09:37:03;;;;;;;0.70;0.60;;;;;;;9.38;95.11;100349.28;5116895;28;20203;-84
2024/03/16 09:39:30;;;;;;;0.77;0.47;;;;;;;9.29;95.80;100343.28;5115938;28;20262;-85
2024/03/16 09:41:57;;;;;;;1.47;0.70;;;;;;;9.13;96.68;100337.44;5117811;27;20204;-84
2024/03/16 09:44:23;;;;;;;1.20;0.70;;;;;;;9.03;97.92;100328.06;5120243;27;20233;-85
2024/03/16 09:46:50;;;;;;;0.60;0.60;;;;;;;9.06;97.88;100320.22;5119527;27;20226;-86
2024/03/16 09:49:16;;;;;;;1.87;0.80;;;;;;;9.05;98.08;100315.03;5119872;27;20207;-85
2024/03/16 09:51:43;;;;;;;2.50;0.90;;;;;;;9.00;98.40;100319.41;5120451;27;20206;-85
2024/03/16 09:54:10;;;;;;;5.23;0.93;;;;;;;8.97;97.18;100327.28;5121020;27;20202;-84
2024/03/16 09:56:36;;;;;;;2.33;0.80;;;;;;;9.09;97.45;100330.56;5119957;27;20258;-86
2024/03/16 09:59:03;;;;;;;1.30;0.80;;;;;;;9.32;96.56;100345.88;5121099;27;20208;-86
2024/03/16 10:01:30;;;;;;;2.63;1.00;;;;;;;9.39;96.80;100353.56;5121788;27;20263;-85
2024/03/16 10:03:57;;;;;;;1.77;1.23;;;;;;;9.49;96.24;100374.28;5121594;27;20232;-85
2024/03/16 10:06:23;;;;;;;0.77;0.63;;;;;;;9.38;96.65;100372.72;5121456;27;20223;-85
2024/03/16 10:08:54;;;;;;;2.83;1.03;;;;;;;9.36;97.47;100370.13;5121229;27;20203;-86
2024/03/16 10:11:20;;;;;;;2.30;0.90;;;;;;;9.54;96.13;100385.47;5121470;27;20244;-86
2024/03/16 10:13:52;;;;;;;1.93;0.87;;;;;;;9.40;94.80;100436.06;5117142;28;20210;-85
2024/03/16 10:16:19;;;;;;;1.93;0.90;;;;;;;8.80;93.69;100479.34;5120640;27;20210;-83
2024/03/16 10:18:46;;;;;;;1.70;0.70;;;;;;;8.45;93.67;100505.72;5121245;27;20202;-86
2024/03/16 10:21:13;;;;;;;1.70;0.90;;;;;;;8.43;94.60;100494.47;5120088;27;20716;-84
2024/03/16 10:23:40;;;;;;;3.50;1.00;;;;;;;8.23;96.20;100474.66;5122160;27;20672;-85
2024/03/16 10:26:09;;;;;;;3.77;1.30;;;;;;;8.50;97.15;100452.78;5123646;27;20226;-85
2024/03/16 10:28:35;;;;;;;2.90;0.97;;;;;;;8.62;95.20;100457.00;5121836;27;20574;-84
2024/03/16 10:31:02;;;;;;;4.63;1.23;;;;;;;8.75;93.17;100496.75;5119445;27;20231;-85
2024/03/16 10:33:29;;;;;;;4.37;1.30;;;;;;;9.04;93.66;100500.75;5119739;27;20573;-85
2024/03/16 10:35:56;;;;;;;4.20;1.07;;;;;;;9.00;91.35;100541.59;5119620;27;20199;-84
2024/03/16 10:38:23;;;;;;;2.83;1.30;;;;;;;9.13;90.66;100547.53;5119449;27;20209;-85
2024/03/16 10:40:49;;;;;;;6.33;1.63;;;;;;;9.33;90.01;100571.59;5120212;27;20223;-82
2024/03/16 10:43:16;;;;;;;4.27;1.57;;;;;;;9.43;89.64;100601.00;5118575;27;20214;-83
2024/03/16 10:45:45;;;;;;;5.63;1.87;;;;;;;9.63;89.12;100615.53;5114526;28;20931;-82
2024/03/16 10:48:13;;;;;;;5.30;1.50;;;;;;;9.59;88.28;100647.75;5098013;28;20222;-83
2024/03/16 10:50:43;;;;;;;3.27;1.67;;;;;;;9.64;87.67;100669.41;5097636;28;20310;-83
2024/03/16 10:53:09;;;;;;;4.50;1.93;;;;;;;9.60;87.05;100688.56;5097971;28;20231;-83
2024/03/16 10:55:38;;;;;;;5.53;2.80;;;;;;;9.73;86.63;100711.88;5097155;28;20237;-83
2024/03/16 10:58:06;;;;;;;5.00;2.63;;;;;;;9.74;85.68;100736.19;5097139;28;20205;-83
2024/03/16 11:00:35;;;;;;;6.00;2.70;;;;;;;9.56;83.64;100765.06;5097754;28;20220;-84
2024/03/16 11:03:02;;;;;;;3.20;2.00;;;;;;;9.42;83.87;100796.47;5097223;28;20220;-81
2024/03/16 11:05:35;;;;;;;3.93;2.00;;;;;;;9.33;84.07;100810.41;5097282;28;20214;-82
2024/03/16 11:08:23;;;;;;;5.17;2.10;;;;;;;9.24;82.73;100834.78;5097578;28;20271;-83
2024/03/16 11:10:49;;;;;;;6.33;1.63;;;;;;;9.31;80.57;100890.31;5099874;28;20223;-81
2024/03/16 11:13:16;;;;;;;3.03;1.83;;;;;;;9.06;76.37;100970.34;5100192;27;20814;-83
2024/03/16 11:15:44;;;;;;;3.50;1.53;;;;;;;9.10;76.40;101025.00;5113643;28;20229;-83
2024/03/16 11:18:53;;;;;;;4.47;1.60;;;;;;;9.13;74.25;101091.81;5096838;28;20207;-82
2024/03/16 11:21:22;;;;;;;2.23;1.30;;;;;;;8.93;74.33;101130.94;5114633;28;20874;-84
2024/03/16 11:23:48;;;;;;;4.37;1.20;;;;;;;8.99;74.74;101141.34;5097416;28;20219;-83
2024/03/16 11:26:32;;;;;;;2.30;1.60;;;;;;;8.87;76.44;101136.16;5098123;28;20232;-83